createdAt,value
2018-10-09T00:00:00.922Z,95576.45
2018-10-09T00:02:29.479Z,95571.13
2018-10-09T00:04:58.003Z,95567.58
2018-10-09T00:07:26.575Z,95570.04
2018-10-09T00:09:55.109Z,95568.23
2018-10-09T00:12:23.707Z,95567.53
2018-10-09T00:14:52.184Z,95576.27
2018-10-09T00:17:21.357Z,95567.86
2018-10-09T00:19:49.915Z,95563.30
2018-10-09T00:22:18.428Z,95559.84
2018-10-09T00:24:46.927Z,95560.52
2018-10-09T00:27:15.459Z,95562.17
2018-10-09T00:29:43.941Z,95562.30
2018-10-09T00:32:12.388Z,95565.09
2018-10-09T00:34:40.913Z,95558.68
2018-10-09T00:37:09.340Z,95543.90
2018-10-09T00:39:37.871Z,95540.00
2018-10-09T00:42:06.311Z,95541.16
2018-10-09T00:44:34.793Z,95534.73
2018-10-09T00:47:03.279Z,95534.51
2018-10-09T00:49:31.780Z,95535.77
2018-10-09T00:52:00.258Z,95529.66
2018-10-09T00:54:28.776Z,95523.67
2018-10-09T00:56:57.281Z,95516.61
2018-10-09T00:59:25.930Z,95509.14
2018-10-09T01:01:54.464Z,95504.45
2018-10-09T01:04:22.944Z,95500.62
2018-10-09T01:06:51.572Z,95507.56
2018-10-09T01:09:20.166Z,95498.13
2018-10-09T01:11:48.630Z,95485.83
2018-10-09T01:14:17.207Z,95490.37
2018-10-09T01:16:45.771Z,95492.26
2018-10-09T01:19:14.441Z,95493.55
2018-10-09T01:21:43.049Z,95491.02
2018-10-09T01:24:11.592Z,95498.88
2018-10-09T01:26:40.179Z,95490.18
2018-10-09T01:29:08.674Z,95494.14
2018-10-09T01:31:37.206Z,95499.05
2018-10-09T01:34:05.734Z,95501.09
2018-10-09T01:36:34.307Z,95499.56
2018-10-09T01:39:02.797Z,95507.88
2018-10-09T01:41:31.315Z,95511.33
2018-10-09T01:43:59.892Z,95516.00
2018-10-09T01:46:28.428Z,95514.31
2018-10-09T01:48:56.984Z,95518.74
2018-10-09T01:51:25.563Z,95517.35
2018-10-09T01:53:54.060Z,95517.45
2018-10-09T01:56:22.547Z,95519.89
2018-10-09T01:58:50.998Z,95519.22
2018-10-09T02:01:19.453Z,95517.16
2018-10-09T02:03:47.962Z,95510.34
2018-10-09T02:06:16.437Z,95514.05
2018-10-09T02:08:44.955Z,95513.38
2018-10-09T02:11:13.572Z,95520.84
2018-10-09T02:13:42.124Z,95516.01
2018-10-09T02:16:10.704Z,95517.84
2018-10-09T02:18:39.265Z,95515.09
2018-10-09T02:21:07.865Z,95514.22
2018-10-09T02:23:36.417Z,95510.04
2018-10-09T02:26:04.940Z,95514.38
2018-10-09T02:28:33.458Z,95512.78
2018-10-09T02:31:02.079Z,95512.55
2018-10-09T02:33:30.687Z,95513.86
2018-10-09T02:35:59.147Z,95515.38
2018-10-09T02:38:27.639Z,95518.74
2018-10-09T02:40:56.198Z,95516.57
2018-10-09T02:43:24.719Z,95523.95
2018-10-09T02:45:53.255Z,95526.72
2018-10-09T02:48:21.698Z,95527.56
2018-10-09T02:50:50.504Z,95516.94
2018-10-09T02:53:18.993Z,95521.63
2018-10-09T02:55:47.555Z,95519.94
2018-10-09T02:58:16.035Z,95511.79
2018-10-09T03:00:44.644Z,95509.26
2018-10-09T03:03:13.158Z,95511.70
2018-10-09T03:05:41.969Z,95509.20
2018-10-09T03:08:10.438Z,95507.37
2018-10-09T03:10:39.065Z,95490.27
2018-10-09T03:13:07.536Z,95496.00
2018-10-09T03:15:35.993Z,95487.44
2018-10-09T03:18:04.460Z,95492.87
2018-10-09T03:20:33.127Z,95491.88
2018-10-09T03:23:01.610Z,95486.61
2018-10-09T03:25:30.177Z,95480.73
2018-10-09T03:27:58.710Z,95480.03
2018-10-09T03:30:27.180Z,95481.71
2018-10-09T03:32:55.652Z,95487.45
2018-10-09T03:35:24.081Z,95477.12
2018-10-09T03:37:52.589Z,95479.88
2018-10-09T03:40:21.035Z,95478.91
2018-10-09T03:42:49.538Z,95472.56
2018-10-09T03:45:18.005Z,95474.08
2018-10-09T03:47:46.458Z,95461.02
2018-10-09T03:50:14.961Z,95453.88
2018-10-09T03:52:43.620Z,95452.25
2018-10-09T03:55:12.109Z,95453.97
2018-10-09T03:57:40.638Z,95451.49
2018-10-09T04:00:09.331Z,95447.83
2018-10-09T04:02:37.903Z,95445.65
2018-10-09T04:05:06.412Z,95442.92
2018-10-09T04:07:34.954Z,95442.55
2018-10-09T04:10:03.328Z,95445.46
2018-10-09T04:12:31.659Z,95445.84
2018-10-09T04:14:59.947Z,95449.42
2018-10-09T04:17:28.274Z,95451.33
2018-10-09T04:19:56.565Z,95451.80
2018-10-09T04:22:24.876Z,95449.27
2018-10-09T04:24:53.193Z,95450.25
2018-10-09T04:27:21.568Z,95447.20
2018-10-09T04:29:49.952Z,95450.58
2018-10-09T04:32:20.164Z,95452.27
2018-10-09T04:34:49.706Z,95458.00
2018-10-09T04:37:18.937Z,95456.05
2018-10-09T04:39:48.496Z,95455.73
2018-10-09T04:42:17.311Z,95454.62
2018-10-09T04:44:46.423Z,95447.97
2018-10-09T04:47:15.928Z,95453.89
2018-10-09T04:49:45.082Z,95449.34
2018-10-09T04:52:14.077Z,95453.55
2018-10-09T04:54:43.439Z,95453.85
2018-10-09T04:57:12.403Z,95457.63
2018-10-09T04:59:41.750Z,95456.73
2018-10-09T05:02:10.505Z,95457.05
2018-10-09T05:04:38.843Z,95460.86
2018-10-09T05:07:08.201Z,95464.55
2018-10-09T05:09:36.537Z,95461.84
2018-10-09T05:12:05.632Z,95467.29
2018-10-09T05:14:34.807Z,95468.64
2018-10-09T05:17:04.256Z,95466.87
2018-10-09T05:19:33.524Z,95471.47
2018-10-09T05:22:01.973Z,95468.66
2018-10-09T05:24:31.345Z,95474.84
2018-10-09T05:27:00.794Z,95472.72
2018-10-09T05:29:29.163Z,95466.89
2018-10-09T05:31:57.510Z,95467.29
2018-10-09T05:34:26.075Z,95469.69
2018-10-09T05:36:54.374Z,95471.56
2018-10-09T05:39:22.663Z,95474.58
2018-10-09T05:41:51.012Z,95473.86
2018-10-09T05:44:19.380Z,95481.78
2018-10-09T05:46:47.620Z,95484.38
2018-10-09T05:49:15.919Z,95482.13
2018-10-09T05:51:44.228Z,95490.34
2018-10-09T05:54:12.536Z,95490.77
2018-10-09T05:56:40.865Z,95494.48
2018-10-09T05:59:09.181Z,95502.44
2018-10-09T06:01:37.645Z,95502.97
2018-10-09T06:04:06.020Z,95509.44
2018-10-09T06:06:34.450Z,95511.95
2018-10-09T06:09:02.863Z,95509.97
2018-10-09T06:11:31.315Z,95509.55
2018-10-09T06:13:59.752Z,95506.14
2018-10-09T06:16:28.340Z,95502.57
2018-10-09T06:18:56.788Z,95502.66
2018-10-09T06:21:25.184Z,95510.76
2018-10-09T06:23:53.599Z,95515.11
2018-10-09T06:26:22.056Z,95515.40
2018-10-09T06:28:50.517Z,95514.38
2018-10-09T06:31:19.022Z,95523.52
2018-10-09T06:33:47.605Z,95527.81
2018-10-09T06:36:16.369Z,95524.50
2018-10-09T06:38:44.880Z,95525.72
2018-10-09T06:41:13.387Z,95530.77
2018-10-09T06:43:41.960Z,95532.50
2018-10-09T06:46:10.468Z,95536.14
2018-10-09T06:48:38.992Z,95534.90
2018-10-09T06:51:07.462Z,95538.70
2018-10-09T06:53:35.821Z,95539.27
2018-10-09T06:56:04.283Z,95545.08
2018-10-09T06:58:32.624Z,95543.05
2018-10-09T07:01:01.080Z,95553.35
2018-10-09T07:03:29.417Z,95556.33
2018-10-09T07:05:57.931Z,95560.88
2018-10-09T07:08:26.412Z,95561.03
2018-10-09T07:10:54.960Z,95556.09
2018-10-09T07:13:23.392Z,95554.95
2018-10-09T07:15:51.893Z,95553.59
2018-10-09T07:18:20.275Z,95560.88
2018-10-09T07:20:48.680Z,95560.98
2018-10-09T07:23:17.212Z,95564.22
2018-10-09T07:25:45.748Z,95568.80
2018-10-09T07:28:14.245Z,95572.23
2018-10-09T07:30:42.789Z,95571.03
2018-10-09T07:33:11.260Z,95573.39
2018-10-09T07:35:39.737Z,95572.63
2018-10-09T07:38:08.285Z,95580.39
2018-10-09T07:40:36.815Z,95591.38
2018-10-09T07:43:05.296Z,95589.57
2018-10-09T07:45:33.724Z,95579.36
2018-10-09T07:48:02.271Z,95584.02
2018-10-09T07:50:30.716Z,95591.88
2018-10-09T07:52:59.282Z,95587.42
2018-10-09T07:55:27.604Z,95584.05
2018-10-09T07:57:56.123Z,95586.47
2018-10-09T08:00:24.746Z,95592.23
2018-10-09T08:02:53.249Z,95594.70
2018-10-09T08:05:21.700Z,95603.73
2018-10-09T08:07:50.211Z,95597.84
2018-10-09T08:10:18.759Z,95598.02
2018-10-09T08:12:47.160Z,95600.25
2018-10-09T08:15:15.600Z,95600.53
2018-10-09T08:17:44.032Z,95601.83
2018-10-09T08:20:12.435Z,95606.26
2018-10-09T08:22:40.897Z,95606.09
2018-10-09T08:25:09.306Z,95606.23
2018-10-09T08:27:37.805Z,95612.55
2018-10-09T08:30:06.332Z,95609.39
2018-10-09T08:32:34.784Z,95610.13
2018-10-09T08:35:03.200Z,95608.36
2018-10-09T08:37:31.601Z,95603.94
2018-10-09T08:40:00.018Z,95605.86
2018-10-09T08:42:28.521Z,95609.36
2018-10-09T08:44:57.036Z,95617.97
2018-10-09T08:47:25.468Z,95616.99
2018-10-09T08:49:53.987Z,95623.94
2018-10-09T08:52:22.539Z,95623.72
2018-10-09T08:54:50.944Z,95620.24
2018-10-09T08:57:19.471Z,95621.03
2018-10-09T08:59:47.921Z,95615.81
2018-10-09T09:02:16.367Z,95614.95
2018-10-09T09:04:44.911Z,95618.86
2018-10-09T09:07:13.306Z,95622.36
2018-10-09T09:09:41.798Z,95625.34
2018-10-09T09:12:10.136Z,95623.73
2018-10-09T09:14:38.656Z,95622.72
2018-10-09T09:17:07.064Z,95620.72
2018-10-09T09:19:35.553Z,95628.33
2018-10-09T09:22:04.007Z,95626.14
2018-10-09T09:24:32.439Z,95633.68
2018-10-09T09:27:01.123Z,95630.28
2018-10-09T09:29:29.571Z,95624.84
2018-10-09T09:31:58.120Z,95622.21
2018-10-09T09:34:26.585Z,95622.24
2018-10-09T09:36:55.080Z,95626.55
2018-10-09T09:39:23.458Z,95633.84
2018-10-09T09:41:51.908Z,95626.50
2018-10-09T09:44:20.305Z,95622.67
2018-10-09T09:46:48.756Z,95626.16
2018-10-09T09:49:17.164Z,95618.16
2018-10-09T09:51:45.642Z,95616.58
2018-10-09T09:54:14.056Z,95626.80
2018-10-09T09:56:42.460Z,95624.92
2018-10-09T09:59:11.033Z,95627.66
2018-10-09T10:01:43.387Z,95631.31
2018-10-09T10:04:12.668Z,95624.23
2018-10-09T10:06:41.300Z,95624.59
2018-10-09T10:09:10.393Z,95621.41
2018-10-09T10:11:39.083Z,95615.00
2018-10-09T10:14:08.064Z,95615.36
2018-10-09T10:16:36.539Z,95618.18
2018-10-09T10:19:05.119Z,95621.56
2018-10-09T10:21:33.683Z,95623.84
2018-10-09T10:24:02.038Z,95619.95
2018-10-09T10:26:30.497Z,95616.98
2018-10-09T10:28:59.003Z,95616.71
2018-10-09T10:31:27.450Z,95616.77
2018-10-09T10:33:56.070Z,95621.19
2018-10-09T10:36:24.584Z,95624.58
2018-10-09T10:38:53.115Z,95622.45
2018-10-09T10:41:21.712Z,95617.06
2018-10-09T10:43:50.244Z,95613.78
2018-10-09T10:46:18.868Z,95612.94
2018-10-09T10:48:59.587Z,95612.75
2018-10-09T10:51:27.963Z,95607.39
2018-10-09T10:53:56.729Z,95604.38
2018-10-09T10:56:25.106Z,95604.91
2018-10-09T10:58:53.465Z,95601.49
2018-10-09T11:01:21.861Z,95604.48
2018-10-09T11:03:50.225Z,95607.30
2018-10-09T11:06:18.662Z,95613.42
2018-10-09T11:08:47.884Z,95608.20
2018-10-09T11:11:16.629Z,95609.33
2018-10-09T11:13:45.261Z,95610.52
2018-10-09T11:16:13.753Z,95607.92
2018-10-09T11:18:42.296Z,95608.92
2018-10-09T11:21:10.744Z,95607.12
2018-10-09T11:23:39.476Z,95601.76
2018-10-09T11:26:08.104Z,95611.45
2018-10-09T11:28:36.556Z,95602.09
2018-10-09T11:31:05.000Z,95595.56
2018-10-09T11:33:33.705Z,95592.70
2018-10-09T11:36:02.140Z,95589.01
2018-10-09T11:38:30.485Z,95595.10
2018-10-09T11:40:58.909Z,95588.01
2018-10-09T11:43:27.296Z,95585.55
2018-10-09T11:45:55.685Z,95585.45
2018-10-09T11:48:24.100Z,95569.65
2018-10-09T11:50:52.489Z,95570.25
2018-10-09T11:53:20.860Z,95570.20
2018-10-09T11:55:49.251Z,95566.72
2018-10-09T11:58:17.628Z,95558.48
2018-10-09T12:00:47.372Z,95554.91
2018-10-09T12:03:15.787Z,95550.00
2018-10-09T12:05:44.222Z,95552.27
2018-10-09T12:08:12.798Z,95542.02
2018-10-09T12:10:41.207Z,95548.66
2018-10-09T12:13:09.600Z,95545.50
2018-10-09T12:15:38.155Z,95545.34
2018-10-09T12:18:06.569Z,95547.64
2018-10-09T12:20:35.008Z,95547.78
2018-10-09T12:23:03.412Z,95554.38
2018-10-09T12:25:31.846Z,95551.36
2018-10-09T12:28:00.254Z,95551.27
2018-10-09T12:30:28.649Z,95545.52
2018-10-09T12:32:57.290Z,95554.43
2018-10-09T12:35:25.657Z,95547.56
2018-10-09T12:37:54.282Z,95550.39
2018-10-09T12:40:22.744Z,95556.33
2018-10-09T12:42:51.206Z,95552.00
2018-10-09T12:45:19.900Z,95550.95
2018-10-09T12:47:48.400Z,95550.84
2018-10-09T12:50:17.028Z,95542.05
2018-10-09T12:52:45.525Z,95545.70
2018-10-09T12:55:14.070Z,95540.41
2018-10-09T12:57:42.546Z,95541.16
2018-10-09T13:00:11.151Z,95543.77
2018-10-09T13:02:40.551Z,95536.92
2018-10-09T13:05:09.012Z,95543.38
2018-10-09T13:07:37.528Z,95545.97
2018-10-09T13:10:06.000Z,95541.86
2018-10-09T13:12:34.427Z,95545.17
2018-10-09T13:15:02.888Z,95542.69
2018-10-09T13:17:31.338Z,95543.79
2018-10-09T13:19:59.765Z,95534.63
2018-10-09T13:22:28.474Z,95540.94
2018-10-09T13:24:56.645Z,95537.59
2018-10-09T13:27:25.072Z,95533.08
2018-10-09T13:29:53.495Z,95537.03
2018-10-09T13:32:21.940Z,95530.28
2018-10-09T13:34:50.405Z,95533.67
2018-10-09T13:37:18.970Z,95529.70
2018-10-09T13:39:47.496Z,95532.86
2018-10-09T13:42:15.908Z,95530.12
2018-10-09T13:44:44.378Z,95524.36
2018-10-09T13:47:12.810Z,95527.27
2018-10-09T13:49:41.247Z,95526.31
2018-10-09T13:52:09.740Z,95529.86
2018-10-09T13:54:38.229Z,95518.23
2018-10-09T13:57:07.017Z,95518.67
2018-10-09T13:59:35.494Z,95523.47
2018-10-09T14:02:03.999Z,95522.13
2018-10-09T14:04:32.569Z,95519.13
2018-10-09T14:07:01.075Z,95520.71
2018-10-09T14:09:29.546Z,95516.96
2018-10-09T14:11:58.096Z,95522.29
2018-10-09T14:14:26.842Z,95516.34
2018-10-09T14:16:57.676Z,95516.84
2018-10-09T14:19:26.089Z,95520.00
2018-10-09T14:21:54.783Z,95511.09
2018-10-09T14:24:23.200Z,95511.68
2018-10-09T14:26:51.590Z,95509.94
2018-10-09T14:29:20.007Z,95513.98
2018-10-09T14:31:48.420Z,95516.86
2018-10-09T14:34:16.751Z,95504.97
2018-10-09T14:36:45.221Z,95509.02
2018-10-09T14:39:13.623Z,95512.22
2018-10-09T14:41:42.200Z,95510.25
2018-10-09T14:44:10.871Z,95515.61
2018-10-09T14:46:39.184Z,95518.30
2018-10-09T14:49:07.625Z,95515.75
2018-10-09T14:51:36.154Z,95511.83
2018-10-09T14:54:04.638Z,95512.45
2018-10-09T14:56:33.104Z,95510.94
2018-10-09T14:59:01.556Z,95521.66
2018-10-09T15:01:30.069Z,95511.42
2018-10-09T15:03:58.514Z,95522.73
2018-10-09T15:06:26.919Z,95509.68
2018-10-09T15:08:55.289Z,95515.39
2018-10-09T15:11:23.700Z,95510.92
2018-10-09T15:13:52.098Z,95522.83
2018-10-09T15:16:20.504Z,95518.25
2018-10-09T15:18:48.899Z,95526.06
2018-10-09T15:21:17.301Z,95531.22
2018-10-09T15:23:45.705Z,95530.39
2018-10-09T15:26:14.104Z,95531.35
2018-10-09T15:28:42.549Z,95536.58
2018-10-09T15:31:10.992Z,95539.27
2018-10-09T15:33:39.527Z,95541.26
2018-10-09T15:36:08.001Z,95537.58
2018-10-09T15:38:36.692Z,95540.02
2018-10-09T15:41:05.183Z,95543.23
2018-10-09T15:43:33.601Z,95542.73
2018-10-09T15:46:02.038Z,95542.94
2018-10-09T15:48:30.544Z,95546.01
2018-10-09T15:50:59.008Z,95546.73
2018-10-09T15:53:27.633Z,95550.92
2018-10-09T15:55:56.192Z,95545.96
2018-10-09T15:58:24.756Z,95552.89
2018-10-09T16:00:53.252Z,95548.28
2018-10-09T16:03:21.759Z,95546.69
2018-10-09T16:05:50.348Z,95546.42
2018-10-09T16:08:18.828Z,95552.12
2018-10-09T16:10:47.317Z,95558.26
2018-10-09T16:13:15.817Z,95557.30
2018-10-09T16:15:44.328Z,95559.92
2018-10-09T16:18:12.817Z,95559.59
2018-10-09T16:20:41.394Z,95561.24
2018-10-09T16:23:09.866Z,95564.62
2018-10-09T16:25:38.404Z,95566.95
2018-10-09T16:28:08.168Z,95566.17
2018-10-09T16:30:36.664Z,95564.02
2018-10-09T16:33:05.238Z,95574.34
2018-10-09T16:35:33.734Z,95567.57
2018-10-09T16:38:02.166Z,95569.34
2018-10-09T16:40:30.665Z,95568.78
2018-10-09T16:42:59.069Z,95572.73
2018-10-09T16:45:27.547Z,95573.21
2018-10-09T16:47:56.037Z,95573.28
2018-10-09T16:50:24.479Z,95573.53
2018-10-09T16:52:52.922Z,95580.75
2018-10-09T16:55:21.459Z,95582.91
2018-10-09T16:57:49.896Z,95586.11
2018-10-09T17:00:18.500Z,95584.63
2018-10-09T17:02:47.072Z,95584.03
2018-10-09T17:05:15.679Z,95585.39
2018-10-09T17:07:44.156Z,95589.13
2018-10-09T17:10:12.628Z,95590.38
2018-10-09T17:12:41.128Z,95585.88
2018-10-09T17:15:09.624Z,95590.91
2018-10-09T17:17:38.156Z,95594.17
2018-10-09T17:20:06.664Z,95592.57
2018-10-09T17:22:35.161Z,95591.33
2018-10-09T17:25:03.616Z,95600.22
2018-10-09T17:27:32.096Z,95602.16
2018-10-09T17:30:00.593Z,95600.34
2018-10-09T17:32:29.156Z,95594.91
2018-10-09T17:34:57.735Z,95597.67
2018-10-09T17:37:26.387Z,95602.56
2018-10-09T17:39:54.796Z,95595.70
2018-10-09T17:42:23.308Z,95601.64
2018-10-09T17:44:51.805Z,95600.66
2018-10-09T17:47:20.248Z,95599.47
2018-10-09T17:49:48.672Z,95601.48
2018-10-09T17:52:17.065Z,95599.33
2018-10-09T17:54:45.683Z,95601.06
2018-10-09T17:57:14.281Z,95601.18
2018-10-09T17:59:42.856Z,95611.07
2018-10-09T18:02:11.316Z,95607.01
2018-10-09T18:04:39.753Z,95609.42
2018-10-09T18:07:08.179Z,95614.47
2018-10-09T18:09:36.652Z,95610.92
2018-10-09T18:12:05.140Z,95609.56
2018-10-09T18:14:33.479Z,95613.02
2018-10-09T18:17:01.779Z,95614.11
2018-10-09T18:19:30.152Z,95610.72
2018-10-09T18:21:58.567Z,95616.44
2018-10-09T18:24:26.964Z,95613.05
2018-10-09T18:26:55.357Z,95618.53
2018-10-09T18:29:23.738Z,95614.14
2018-10-09T18:31:52.272Z,95611.59
2018-10-09T18:34:20.756Z,95606.72
2018-10-09T18:36:49.301Z,95613.80
2018-10-09T18:39:17.856Z,95617.70
2018-10-09T18:41:46.967Z,95615.11
2018-10-09T18:44:15.732Z,95621.63
2018-10-09T18:46:44.251Z,95623.27
2018-10-09T18:49:12.830Z,95624.55
2018-10-09T18:51:41.408Z,95618.28
2018-10-09T18:54:09.837Z,95625.33
2018-10-09T18:56:38.609Z,95625.34
2018-10-09T18:59:07.152Z,95625.86
2018-10-09T19:01:35.798Z,95626.89
2018-10-09T19:04:04.336Z,95630.56
2018-10-09T19:06:32.848Z,95632.38
2018-10-09T19:09:01.261Z,95629.51
2018-10-09T19:11:29.660Z,95634.19
2018-10-09T19:13:58.181Z,95631.81
2018-10-09T19:16:26.662Z,95630.80
2018-10-09T19:18:55.127Z,95633.35
2018-10-09T19:21:23.657Z,95634.16
2018-10-09T19:23:52.210Z,95636.03
2018-10-09T19:26:20.652Z,95636.55
2018-10-09T19:28:49.072Z,95643.08
2018-10-09T19:31:17.563Z,95643.33
2018-10-09T19:33:46.394Z,95636.80
2018-10-09T19:36:15.856Z,95643.76
2018-10-09T19:38:44.341Z,95639.59
2018-10-09T19:41:12.812Z,95646.91
2018-10-09T19:43:41.236Z,95654.18
2018-10-09T19:46:09.737Z,95650.22
2018-10-09T19:48:38.161Z,95654.66
2018-10-09T19:51:06.740Z,95656.47
2018-10-09T19:53:35.212Z,95648.33
2018-10-09T19:56:03.648Z,95648.32
2018-10-09T19:58:32.104Z,95649.81
2018-10-09T20:01:00.794Z,95649.44
2018-10-09T20:03:29.248Z,95654.36
2018-10-09T20:05:57.925Z,95648.95
2018-10-09T20:08:26.465Z,95652.59
2018-10-09T20:10:54.939Z,95649.54
2018-10-09T20:13:23.458Z,95648.65
2018-10-09T20:15:52.104Z,95646.84
2018-10-09T20:18:20.585Z,95648.66
2018-10-09T20:20:49.107Z,95647.63
2018-10-09T20:23:17.531Z,95654.16
2018-10-09T20:25:46.072Z,95648.89
2018-10-09T20:28:14.690Z,95645.77
2018-10-09T20:30:43.212Z,95653.03
2018-10-09T20:33:11.806Z,95653.78
2018-10-09T20:35:40.235Z,95659.06
2018-10-09T20:38:08.657Z,95654.80
2018-10-09T20:40:37.131Z,95658.40
2018-10-09T20:43:05.669Z,95656.89
2018-10-09T20:45:34.316Z,95657.91
2018-10-09T20:48:02.832Z,95657.25
2018-10-09T20:50:31.313Z,95658.28
2018-10-09T20:52:59.850Z,95660.34
2018-10-09T20:55:28.394Z,95661.27
2018-10-09T20:57:57.404Z,95661.94
2018-10-09T21:00:25.903Z,95664.22
2018-10-09T21:02:54.384Z,95659.92
2018-10-09T21:05:23.400Z,95660.48
2018-10-09T21:07:52.736Z,95658.20
2018-10-09T21:10:21.323Z,95657.03
2018-10-09T21:12:49.760Z,95653.68
2018-10-09T21:15:18.317Z,95657.33
2018-10-09T21:17:46.963Z,95651.56
2018-10-09T21:20:15.307Z,95649.94
2018-10-09T21:22:43.729Z,95651.55
2018-10-09T21:25:12.220Z,95658.23
2018-10-09T21:27:40.684Z,95645.94
2018-10-09T21:30:09.159Z,95651.41
2018-10-09T21:32:37.808Z,95652.02
2018-10-09T21:35:06.344Z,95647.68
2018-10-09T21:37:34.769Z,95645.05
2018-10-09T21:40:03.411Z,95650.06
2018-10-09T21:42:31.909Z,95645.16
2018-10-09T21:45:00.359Z,95646.98
2018-10-09T21:47:28.831Z,95651.51
2018-10-09T21:49:57.315Z,95642.48
2018-10-09T21:52:25.915Z,95645.30
2018-10-09T21:54:54.381Z,95646.34
2018-10-09T21:57:23.894Z,95639.33
2018-10-09T21:59:52.382Z,95640.02
2018-10-09T22:02:20.837Z,95642.12
2018-10-09T22:04:49.362Z,95639.44
2018-10-09T22:07:18.673Z,95644.41
2018-10-09T22:09:47.215Z,95642.47
2018-10-09T22:12:15.620Z,95641.73
2018-10-09T22:14:44.056Z,95642.66
2018-10-09T22:17:12.484Z,95642.05
2018-10-09T22:19:40.951Z,95642.66
2018-10-09T22:22:09.359Z,95641.61
2018-10-09T22:24:37.772Z,95643.05
2018-10-09T22:27:06.289Z,95632.52
2018-10-09T22:29:34.805Z,95633.43
2018-10-09T22:32:03.392Z,95633.59
2018-10-09T22:34:31.880Z,95634.26
2018-10-09T22:37:00.344Z,95626.72
2018-10-09T22:39:28.939Z,95628.31
2018-10-09T22:41:57.452Z,95627.45
2018-10-09T22:44:37.023Z,95624.34
2018-10-09T22:47:05.432Z,95633.87
2018-10-09T22:49:33.986Z,95626.19
2018-10-09T22:52:02.387Z,95628.89
2018-10-09T22:54:30.788Z,95635.38
2018-10-09T22:56:59.208Z,95628.91
2018-10-09T22:59:27.867Z,95625.06
2018-10-09T23:01:56.430Z,95626.50
2018-10-09T23:04:24.988Z,95625.63
2018-10-09T23:06:53.489Z,95626.33
2018-10-09T23:09:21.933Z,95622.33
2018-10-09T23:11:50.294Z,95619.56
2018-10-09T23:14:18.733Z,95623.70
2018-10-09T23:16:47.158Z,95616.57
2018-10-09T23:19:15.583Z,95612.03
2018-10-09T23:21:44.102Z,95610.15
2018-10-09T23:24:12.595Z,95617.58
2018-10-09T23:26:40.964Z,95622.73
2018-10-09T23:29:09.480Z,95620.97
2018-10-09T23:31:38.056Z,95619.94
2018-10-09T23:34:06.662Z,95620.24
2018-10-09T23:36:35.127Z,95616.22
2018-10-09T23:39:04.959Z,95614.58
2018-10-09T23:41:33.347Z,95616.45
2018-10-09T23:44:01.835Z,95614.33
2018-10-09T23:46:30.321Z,95615.62
2018-10-09T23:48:58.831Z,95612.97
2018-10-09T23:51:27.269Z,95605.95
2018-10-09T23:53:55.681Z,95606.27
2018-10-09T23:56:24.072Z,95607.13
2018-10-09T23:58:52.503Z,95613.42
